Time;durP1;ratioP1;P1;durP2;ratioP2;P2;SDS_P1;SDS_P2;PMS_P1;PMS_P2;Temp;Humidity;BMP_temperature;BMP_pressure;BME280_temperature;BME280_humidity;BME280_pressure;Samples;Min_cycle;Max_cycle;Signal;HPM_P1;HPM_P2
2021/09/04 00:00:41;;;;;;;6.88;4.80;;;;;;;13.17;46.89;95749.38;4978241;28;20034;-68
2021/09/04 00:03:06;;;;;;;6.18;4.85;;;;;;;13.23;46.57;95747.78;4975803;28;20046;-68
2021/09/04 00:05:32;;;;;;;7.72;5.05;;;;;;;13.22;46.50;95749.63;4973641;28;20031;-68
2021/09/04 00:07:57;;;;;;;7.78;5.25;;;;;;;13.25;46.92;95759.09;4973761;28;20063;-70
2021/09/04 00:10:22;;;;;;;7.20;5.13;;;;;;;13.18;48.13;95743.84;4973517;28;20035;-68
2021/09/04 00:12:48;;;;;;;8.15;5.53;;;;;;;13.05;48.18;95743.69;4978333;28;20038;-67
2021/09/04 00:15:13;;;;;;;10.07;5.88;;;;;;;12.92;48.65;95747.06;4969052;28;20057;-68
2021/09/04 00:17:39;;;;;;;9.23;5.20;;;;;;;12.91;48.52;95743.53;4973835;28;20035;-68
2021/09/04 00:20:06;;;;;;;9.48;6.00;;;;;;;12.93;48.94;95735.34;4973452;28;20063;-68
2021/09/04 00:22:32;;;;;;;9.73;5.72;;;;;;;12.74;49.21;95736.78;4974877;28;20431;-66
2021/09/04 00:24:57;;;;;;;8.82;5.90;;;;;;;12.75;49.38;95725.91;4975244;28;20038;-68
2021/09/04 00:27:22;;;;;;;10.32;5.55;;;;;;;12.92;48.40;95729.16;4979281;28;20517;-68
2021/09/04 00:29:48;;;;;;;6.97;5.43;;;;;;;12.98;48.36;95726.75;4976278;28;20596;-67
2021/09/04 00:32:13;;;;;;;9.30;5.50;;;;;;;13.03;47.88;95727.84;4972185;28;20463;-68
2021/09/04 00:34:39;;;;;;;7.82;5.70;;;;;;;13.04;48.19;95726.00;4968865;28;20047;-68
2021/09/04 00:37:04;;;;;;;11.82;5.95;;;;;;;12.99;48.10;95728.41;4970161;28;20032;-68
2021/09/04 00:39:29;;;;;;;7.82;5.72;;;;;;;13.04;48.41;95728.69;4968699;28;20038;-68
2021/09/04 00:41:55;;;;;;;8.75;5.70;;;;;;;13.09;47.64;95720.91;4971582;28;20042;-68
2021/09/04 00:44:21;;;;;;;8.80;5.88;;;;;;;13.07;48.12;95730.97;4948501;28;20045;-67
2021/09/04 00:46:46;;;;;;;8.20;5.63;;;;;;;13.08;48.59;95731.81;4971923;28;20035;-68
2021/09/04 00:49:12;;;;;;;7.65;5.70;;;;;;;13.05;48.54;95736.53;4974306;28;20045;-67
2021/09/04 00:51:38;;;;;;;10.02;6.55;;;;;;;12.86;49.46;95737.97;4971201;28;20042;-67
2021/09/04 00:54:03;;;;;;;9.30;6.30;;;;;;;12.83;49.78;95735.66;4971684;28;20038;-68
2021/09/04 00:56:28;;;;;;;8.57;5.50;;;;;;;12.97;48.61;95728.59;4957330;28;20388;-68
2021/09/04 00:58:54;;;;;;;11.07;6.70;;;;;;;12.97;49.54;95730.44;4971856;28;20055;-68
2021/09/04 01:01:19;;;;;;;8.93;6.35;;;;;;;12.95;49.24;95729.81;4958181;28;20075;-68
2021/09/04 01:03:45;;;;;;;12.07;6.63;;;;;;;12.92;49.53;95729.16;4969005;28;20451;-68
2021/09/04 01:06:11;;;;;;;10.75;7.03;;;;;;;12.87;49.99;95728.06;4977206;28;20106;-68
2021/09/04 01:08:37;;;;;;;8.80;6.03;;;;;;;12.77;49.82;95725.72;4962742;28;20087;-68
2021/09/04 01:11:02;;;;;;;7.93;6.05;;;;;;;12.82;49.80;95722.47;4976994;28;20103;-68
2021/09/04 01:13:27;;;;;;;13.50;6.90;;;;;;;12.89;49.57;95718.03;4972262;28;20130;-68
2021/09/04 01:15:53;;;;;;;18.30;6.80;;;;;;;12.83;49.77;95722.31;4975556;28;20482;-68
2021/09/04 01:18:18;;;;;;;8.25;5.60;;;;;;;12.98;48.66;95719.56;4968984;28;20114;-68
2021/09/04 01:20:44;;;;;;;11.48;7.22;;;;;;;12.86;50.20;95723.75;4981065;28;20082;-68
2021/09/04 01:23:09;;;;;;;11.10;6.07;;;;;;;13.00;48.94;95714.06;4969313;28;20111;-68
2021/09/04 01:25:35;;;;;;;8.57;6.32;;;;;;;12.99;48.71;95718.56;4978597;28;20103;-71
2021/09/04 01:28:01;;;;;;;8.95;6.07;;;;;;;13.04;48.64;95721.50;4949487;28;20079;-68
2021/09/04 01:30:27;;;;;;;8.75;6.10;;;;;;;13.14;48.60;95721.19;4974302;28;20111;-68
2021/09/04 01:32:53;;;;;;;10.98;5.75;;;;;;;13.13;48.62;95714.16;4975251;28;20087;-68
2021/09/04 01:35:20;;;;;;;7.70;5.93;;;;;;;13.18;48.74;95710.94;4975043;28;20115;-68
2021/09/04 01:37:45;;;;;;;8.00;5.87;;;;;;;13.21;48.12;95717.72;4973549;28;21101;-68
2021/09/04 01:40:11;;;;;;;10.73;6.25;;;;;;;13.18;48.41;95721.63;4973313;28;20090;-68
2021/09/04 01:42:37;;;;;;;8.65;5.55;;;;;;;13.15;48.60;95722.00;4970342;28;20229;-69
2021/09/04 01:45:03;;;;;;;8.75;6.10;;;;;;;13.17;48.38;95714.63;4975874;28;20087;-71
2021/09/04 01:47:28;;;;;;;8.00;5.65;;;;;;;13.14;48.45;95726.53;4972247;28;20161;-68
2021/09/04 01:49:54;;;;;;;9.15;6.13;;;;;;;13.08;48.46;95721.13;4976433;28;20111;-68
2021/09/04 01:52:20;;;;;;;11.27;5.75;;;;;;;13.13;48.38;95721.38;4975155;28;20082;-68
2021/09/04 01:54:46;;;;;;;10.45;6.57;;;;;;;13.08;49.19;95713.91;4977628;28;20592;-68
2021/09/04 01:57:11;;;;;;;8.15;5.90;;;;;;;12.98;49.64;95718.75;4974879;28;20099;-68
2021/09/04 01:59:38;;;;;;;9.88;6.32;;;;;;;12.75;50.24;95722.41;4978277;28;20134;-68
2021/09/04 02:02:04;;;;;;;9.05;6.68;;;;;;;12.59;50.77;95718.97;4969184;28;20113;-68
2021/09/04 02:04:29;;;;;;;9.90;6.35;;;;;;;12.46;51.16;95714.28;4980118;28;20079;-68
2021/09/04 02:06:54;;;;;;;8.88;6.05;;;;;;;12.66;50.06;95711.84;4976213;28;20861;-68
2021/09/04 02:09:20;;;;;;;10.45;6.25;;;;;;;12.59;50.69;95713.63;4980199;28;20535;-68
2021/09/04 02:11:45;;;;;;;8.10;5.82;;;;;;;12.65;49.86;95707.50;4977926;28;20634;-68
2021/09/04 02:14:11;;;;;;;9.50;6.50;;;;;;;12.61;50.74;95708.91;4978588;28;20114;-68
2021/09/04 02:16:36;;;;;;;9.98;6.63;;;;;;;12.52;50.72;95710.84;4977705;28;20083;-67
2021/09/04 02:19:01;;;;;;;9.68;6.40;;;;;;;12.56;50.66;95711.31;4975807;28;20185;-70
2021/09/04 02:21:27;;;;;;;10.48;6.60;;;;;;;12.66;49.97;95714.53;4978977;28;20436;-68
2021/09/04 02:23:52;;;;;;;8.05;5.43;;;;;;;12.80;49.42;95703.97;4971675;28;20571;-68
2021/09/04 02:26:18;;;;;;;9.93;6.15;;;;;;;12.60;50.48;95706.41;4971759;28;20102;-66
2021/09/04 02:28:43;;;;;;;8.15;6.30;;;;;;;12.60;50.39;95707.25;4971013;28;20087;-66
2021/09/04 02:31:08;;;;;;;7.93;6.03;;;;;;;12.73;49.67;95700.41;4971969;28;20107;-68
2021/09/04 02:33:34;;;;;;;10.07;5.95;;;;;;;12.82;48.87;95696.59;4972471;28;20106;-68
2021/09/04 02:35:59;;;;;;;8.65;5.90;;;;;;;12.88;48.57;95689.66;4972754;28;20090;-68
2021/09/04 02:38:25;;;;;;;9.73;6.28;;;;;;;12.79;49.31;95697.78;4972183;28;20095;-68
2021/09/04 02:40:50;;;;;;;8.52;5.43;;;;;;;12.86;49.06;95697.88;4972910;28;20083;-68
2021/09/04 02:43:16;;;;;;;8.10;5.10;;;;;;;12.89;48.40;95700.16;4974292;28;20130;-68
2021/09/04 02:45:41;;;;;;;8.60;5.90;;;;;;;12.92;48.22;95691.75;4971860;28;20583;-68
2021/09/04 02:48:06;;;;;;;9.10;5.70;;;;;;;12.94;48.38;95694.25;4975428;28;20090;-66
2021/09/04 02:50:32;;;;;;;8.07;5.85;;;;;;;12.83;49.05;95690.25;4973031;28;20114;-68
2021/09/04 02:52:57;;;;;;;8.60;5.65;;;;;;;12.72;48.86;95690.75;4975644;28;20075;-68
2021/09/04 02:55:23;;;;;;;9.85;6.03;;;;;;;12.81;48.86;95689.59;4974104;28;20107;-68
2021/09/04 02:57:48;;;;;;;7.88;5.65;;;;;;;12.75;48.77;95682.34;4974993;28;20103;-68
2021/09/04 03:00:14;;;;;;;8.00;5.53;;;;;;;12.83;48.48;95682.22;4976019;28;20083;-68
2021/09/04 03:02:40;;;;;;;8.43;6.05;;;;;;;12.86;48.62;95678.34;4975879;28;20138;-68
2021/09/04 03:05:05;;;;;;;8.88;5.80;;;;;;;12.71;49.07;95678.41;4977578;28;20090;-68
2021/09/04 03:07:31;;;;;;;8.32;5.97;;;;;;;12.50;50.93;95678.19;4976697;28;20471;-68
2021/09/04 03:09:56;;;;;;;8.88;6.07;;;;;;;12.33;51.37;95679.41;4960291;28;20170;-68
2021/09/04 03:12:22;;;;;;;9.55;6.30;;;;;;;12.41;50.83;95680.13;4977796;28;20090;-68
2021/09/04 03:14:47;;;;;;;7.88;5.80;;;;;;;12.59;49.44;95678.91;4975469;28;20854;-68
2021/09/04 03:17:12;;;;;;;7.75;5.30;;;;;;;12.69;48.76;95683.09;4974673;28;20532;-68
2021/09/04 03:19:38;;;;;;;9.30;6.03;;;;;;;12.71;48.85;95681.88;4972589;28;20079;-68
2021/09/04 03:22:03;;;;;;;10.10;5.78;;;;;;;12.69;48.70;95683.94;4977261;28;20095;-68
2021/09/04 03:24:29;;;;;;;8.40;6.20;;;;;;;12.68;48.96;95674.25;4975545;28;20552;-68
2021/09/04 03:26:54;;;;;;;9.60;6.55;;;;;;;12.54;50.27;95673.28;4967956;28;20146;-68
2021/09/04 03:29:20;;;;;;;7.40;5.63;;;;;;;12.48;50.17;95677.53;4973577;28;20087;-68
2021/09/04 03:31:45;;;;;;;9.20;5.70;;;;;;;12.58;49.66;95673.75;4995991;28;20102;-68
2021/09/04 03:34:10;;;;;;;9.45;5.85;;;;;;;12.57;50.24;95672.91;4973737;28;20107;-67
2021/09/04 03:36:36;;;;;;;8.65;6.50;;;;;;;12.50;50.25;95672.84;4978087;28;20086;-68
2021/09/04 03:39:01;;;;;;;9.23;6.80;;;;;;;12.50;49.79;95677.34;4971437;28;20099;-68
2021/09/04 03:41:27;;;;;;;8.35;5.53;;;;;;;12.61;49.29;95678.72;4977374;28;20432;-68
2021/09/04 03:43:52;;;;;;;8.20;5.38;;;;;;;12.70;48.87;95669.56;4975665;28;20099;-68
2021/09/04 03:46:18;;;;;;;7.85;5.63;;;;;;;12.70;49.06;95666.06;4975359;28;20102;-68
2021/09/04 03:48:43;;;;;;;7.82;5.38;;;;;;;12.72;48.80;95664.03;4975071;28;20412;-68
2021/09/04 03:51:08;;;;;;;9.85;5.78;;;;;;;12.65;49.01;95664.78;4978904;28;20102;-68
2021/09/04 03:53:34;;;;;;;10.63;6.20;;;;;;;12.60;49.66;95672.53;4976269;28;20181;-68
2021/09/04 03:55:59;;;;;;;9.13;5.57;;;;;;;12.54;49.38;95663.44;4971758;28;20114;-68
2021/09/04 03:58:25;;;;;;;8.95;6.32;;;;;;;12.39;50.32;95668.00;4978052;28;20123;-68
2021/09/04 04:00:50;;;;;;;8.45;5.20;;;;;;;12.46;49.76;95663.56;4979108;28;20075;-68
2021/09/04 04:03:16;;;;;;;7.60;5.47;;;;;;;12.54;49.10;95666.13;4972737;28;20107;-68
2021/09/04 04:05:41;;;;;;;7.32;5.57;;;;;;;12.52;49.00;95670.81;4973251;28;20114;-68
2021/09/04 04:08:06;;;;;;;8.05;5.63;;;;;;;12.51;48.84;95666.47;4969967;28;20126;-68
2021/09/04 04:10:33;;;;;;;8.02;5.63;;;;;;;12.51;49.02;95674.50;4969387;28;20103;-68
2021/09/04 04:12:58;;;;;;;7.28;5.72;;;;;;;12.44;49.64;95676.25;4969762;28;20073;-67
2021/09/04 04:15:23;;;;;;;9.63;6.35;;;;;;;12.38;49.84;95677.84;4970576;28;20461;-70
2021/09/04 04:17:49;;;;;;;8.35;5.40;;;;;;;12.39;49.48;95676.84;4970906;28;20616;-68
2021/09/04 04:20:14;;;;;;;8.15;6.30;;;;;;;12.35;50.36;95672.91;4972769;28;20094;-68
2021/09/04 04:22:40;;;;;;;8.60;5.57;;;;;;;12.40;49.66;95673.16;4970430;28;20099;-68
2021/09/04 04:25:06;;;;;;;9.05;6.50;;;;;;;12.34;50.23;95673.91;4971626;28;20082;-68
2021/09/04 04:27:31;;;;;;;9.25;5.82;;;;;;;12.42;49.91;95670.31;4969744;28;20111;-67
2021/09/04 04:29:57;;;;;;;8.63;6.40;;;;;;;12.35;50.18;95672.91;4972826;28;20118;-68
2021/09/04 04:32:22;;;;;;;8.85;5.80;;;;;;;12.31;50.27;95674.28;4976513;28;20087;-68
2021/09/04 04:34:47;;;;;;;9.38;5.93;;;;;;;12.37;49.91;95673.53;4973520;28;20114;-68
2021/09/04 04:37:13;;;;;;;8.65;5.53;;;;;;;12.37;49.61;95673.53;4973988;28;20087;-68
2021/09/04 04:39:38;;;;;;;9.05;5.50;;;;;;;12.40;49.64;95678.50;4970991;28;20079;-67
2021/09/04 04:42:04;;;;;;;7.70;5.43;;;;;;;12.40;49.40;95673.16;4972673;28;20122;-67
2021/09/04 04:44:29;;;;;;;9.93;6.40;;;;;;;12.26;50.17;95679.34;4974834;28;20292;-68
2021/09/04 04:46:55;;;;;;;10.27;6.40;;;;;;;12.21;50.59;95679.91;4975949;28;20483;-68
2021/09/04 04:49:20;;;;;;;8.50;5.95;;;;;;;12.31;50.18;95682.31;4974145;28;20101;-68
2021/09/04 04:51:45;;;;;;;8.85;6.07;;;;;;;12.35;50.36;95680.06;4977287;28;20079;-68
2021/09/04 04:54:11;;;;;;;8.70;6.15;;;;;;;12.34;50.02;95681.09;4973578;28;20126;-68
2021/09/04 04:56:36;;;;;;;8.27;5.45;;;;;;;12.29;49.90;95678.97;4976689;28;20515;-68
2021/09/04 04:59:02;;;;;;;8.52;6.20;;;;;;;12.42;49.39;95686.31;4974581;28;20606;-68
2021/09/04 05:01:27;;;;;;;8.80;5.80;;;;;;;12.45;49.56;95690.44;4978838;28;20777;-68
2021/09/04 05:03:53;;;;;;;8.77;6.13;;;;;;;12.44;49.88;95689.63;4975641;28;20557;-68
2021/09/04 05:06:18;;;;;;;7.57;6.03;;;;;;;12.51;49.72;95695.06;4975277;28;20098;-68
2021/09/04 05:08:43;;;;;;;8.35;6.00;;;;;;;12.53;49.51;95693.84;4975424;28;20623;-68
2021/09/04 05:11:09;;;;;;;8.15;5.65;;;;;;;12.61;49.10;95692.88;4974406;28;20104;-68
2021/09/04 05:13:34;;;;;;;7.75;5.15;;;;;;;12.67;48.87;95694.81;4970712;28;20118;-68
2021/09/04 05:16:00;;;;;;;8.05;5.57;;;;;;;12.70;48.68;95692.75;4969718;28;20090;-68
2021/09/04 05:18:25;;;;;;;6.95;5.25;;;;;;;12.69;48.58;95685.78;4969154;28;20111;-68
2021/09/04 05:20:52;;;;;;;7.38;5.15;;;;;;;12.71;48.36;95689.91;4971743;28;20440;-68
2021/09/04 05:23:18;;;;;;;7.10;5.00;;;;;;;12.76;48.13;95686.66;4969013;28;20259;-68
2021/09/04 05:25:43;;;;;;;7.10;4.97;;;;;;;12.80;48.12;95695.97;4972730;28;20223;-68
2021/09/04 05:28:08;;;;;;;8.20;5.47;;;;;;;12.81;47.92;95686.91;4972862;28;20165;-68
2021/09/04 05:30:34;;;;;;;11.55;5.30;;;;;;;12.86;47.97;95684.53;4969320;28;20158;-68
2021/09/04 05:32:59;;;;;;;6.70;5.07;;;;;;;12.90;48.05;95691.13;4975702;28;20072;-68
2021/09/04 05:35:25;;;;;;;5.97;4.60;;;;;;;12.94;47.80;95683.56;4975288;28;20642;-68
2021/09/04 05:37:50;;;;;;;7.47;5.25;;;;;;;13.02;47.67;95685.31;4973046;28;20169;-68
2021/09/04 05:40:16;;;;;;;6.55;4.60;;;;;;;13.12;47.53;95684.97;4970478;28;20082;-68
2021/09/04 05:42:42;;;;;;;7.30;4.72;;;;;;;13.18;47.37;95682.34;4971242;28;20114;-67
2021/09/04 05:45:08;;;;;;;6.78;4.85;;;;;;;13.28;47.27;95683.88;4977340;28;20074;-68
2021/09/04 05:47:34;;;;;;;7.90;5.38;;;;;;;13.35;47.06;95686.56;4967538;28;20110;-68
2021/09/04 05:49:59;;;;;;;7.10;4.90;;;;;;;13.41;46.88;95686.66;4977730;28;20103;-68
2021/09/04 05:52:25;;;;;;;7.35;4.60;;;;;;;13.55;46.38;95700.94;4974753;28;20075;-68
2021/09/04 05:54:50;;;;;;;7.43;4.90;;;;;;;13.58;46.43;95691.69;4984079;28;20515;-68
2021/09/04 05:57:15;;;;;;;6.57;4.57;;;;;;;13.67;46.38;95692.38;4970536;28;20599;-69
2021/09/04 05:59:41;;;;;;;6.18;4.90;;;;;;;13.77;46.22;95687.50;4972630;28;20123;-68
2021/09/04 06:02:06;;;;;;;5.75;4.35;;;;;;;13.86;46.23;95685.50;4975465;28;20110;-66
2021/09/04 06:04:35;;;;;;;7.40;4.85;;;;;;;13.97;46.38;95688.66;4976554;28;20107;-67
2021/09/04 06:07:01;;;;;;;8.85;4.93;;;;;;;14.09;46.23;95692.44;4978966;28;20111;-68
2021/09/04 06:09:26;;;;;;;7.38;4.57;;;;;;;14.24;45.98;95688.78;4967392;28;20094;-67
2021/09/04 06:11:52;;;;;;;9.55;4.60;;;;;;;14.36;45.88;95689.88;4981713;28;20805;-68
2021/09/04 06:14:17;;;;;;;6.57;4.72;;;;;;;14.48;46.00;95691.97;4971479;28;20043;-67
2021/09/04 06:16:43;;;;;;;7.15;4.70;;;;;;;14.62;46.14;95696.31;4973345;28;20173;-68
2021/09/04 06:19:08;;;;;;;8.10;4.97;;;;;;;14.78;46.11;95702.38;4971205;28;20099;-68
2021/09/04 06:21:34;;;;;;;7.28;4.30;;;;;;;14.95;46.09;95700.13;4971487;28;20087;-68
2021/09/04 06:24:01;;;;;;;10.50;5.25;;;;;;;15.11;45.88;95696.25;4972210;28;20095;-66
2021/09/04 06:26:26;;;;;;;7.22;4.88;;;;;;;15.30;45.85;95699.94;4973001;28;20134;-68
2021/09/04 06:28:51;;;;;;;7.22;4.72;;;;;;;15.46;45.99;95690.69;4972422;28;20089;-68
2021/09/04 06:31:17;;;;;;;7.55;4.68;;;;;;;15.64;45.94;95691.94;4975932;28;20043;-68
2021/09/04 06:33:42;;;;;;;6.18;4.55;;;;;;;15.84;45.92;95693.75;4972410;28;20103;-68
2021/09/04 06:36:08;;;;;;;6.60;4.78;;;;;;;16.02;45.32;95700.31;4975364;28;20087;-68
2021/09/04 06:38:33;;;;;;;5.72;4.47;;;;;;;16.25;45.26;95697.97;4971700;28;20142;-68
2021/09/04 06:40:59;;;;;;;6.45;4.70;;;;;;;16.44;44.75;95697.28;4966931;28;20358;-67
2021/09/04 06:43:24;;;;;;;8.40;4.50;;;;;;;16.61;44.63;95697.63;4966582;28;20111;-66
2021/09/04 06:45:49;;;;;;;6.25;4.07;;;;;;;16.87;44.77;95698.53;4959740;28;20046;-68
2021/09/04 06:48:15;;;;;;;5.55;4.30;;;;;;;17.07;44.28;95698.41;4969425;28;20075;-66
2021/09/04 06:50:40;;;;;;;6.38;4.50;;;;;;;17.11;43.48;95691.56;4976119;28;20580;-66
2021/09/04 06:53:06;;;;;;;6.13;4.45;;;;;;;17.19;43.31;95697.69;4965143;28;20079;-66
2021/09/04 06:55:31;;;;;;;6.07;4.47;;;;;;;17.33;42.83;95699.25;4965644;28;20118;-68
2021/09/04 06:57:57;;;;;;;6.88;4.68;;;;;;;17.56;42.95;95705.06;4965319;28;20042;-66
2021/09/04 07:00:22;;;;;;;13.07;4.93;;;;;;;17.78;42.50;95700.94;4964076;28;20079;-66
2021/09/04 07:02:48;;;;;;;6.10;4.40;;;;;;;17.90;42.03;95698.38;4965787;28;20135;-68
2021/09/04 07:05:13;;;;;;;7.82;4.40;;;;;;;18.02;41.86;95703.81;4970380;28;20129;-66
2021/09/04 07:07:39;;;;;;;7.38;4.40;;;;;;;18.23;41.55;95699.06;4963869;28;20043;-66
2021/09/04 07:10:05;;;;;;;6.30;4.20;;;;;;;18.40;40.88;95701.97;4963521;28;20038;-68
2021/09/04 07:12:30;;;;;;;5.95;4.07;;;;;;;18.61;40.08;95697.16;4964769;28;20157;-66
2021/09/04 07:14:55;;;;;;;6.65;4.10;;;;;;;18.80;39.48;95697.94;4964437;28;20053;-66
2021/09/04 07:17:21;;;;;;;8.45;4.80;;;;;;;18.96;38.89;95701.03;4963767;28;20034;-66
2021/09/04 07:19:47;;;;;;;6.63;4.88;;;;;;;19.03;38.72;95704.44;4967114;28;20087;-67
2021/09/04 07:22:13;;;;;;;6.68;4.45;;;;;;;19.23;39.39;95708.72;4971876;28;20355;-66
2021/09/04 07:24:38;;;;;;;8.45;4.70;;;;;;;19.32;38.36;95707.38;4972747;28;20502;-66
2021/09/04 07:27:03;;;;;;;7.53;4.53;;;;;;;19.47;38.36;95703.38;4972309;28;20043;-65
2021/09/04 07:29:29;;;;;;;5.45;4.20;;;;;;;19.58;37.81;95696.38;4967820;28;20659;-65
2021/09/04 07:31:55;;;;;;;7.47;4.30;;;;;;;19.80;37.86;95703.88;4968869;28;20651;-66
2021/09/04 07:34:20;;;;;;;8.82;5.30;;;;;;;19.87;36.65;95701.03;4964728;28;20441;-66
2021/09/04 07:36:46;;;;;;;6.20;4.50;;;;;;;20.00;36.46;95694.59;4963052;28;20540;-66
2021/09/04 07:39:11;;;;;;;6.82;4.18;;;;;;;20.15;35.16;95704.94;4964321;28;20134;-66
2021/09/04 07:41:37;;;;;;;9.02;4.10;;;;;;;20.24;36.35;95703.50;4966211;28;20407;-66
2021/09/04 07:44:02;;;;;;;10.02;4.43;;;;;;;20.27;35.79;95703.03;4965799;28;20099;-66
2021/09/04 07:46:28;;;;;;;7.40;4.70;;;;;;;20.40;36.35;95701.13;4965691;28;20111;-66
2021/09/04 07:48:53;;;;;;;6.57;4.75;;;;;;;20.50;36.50;95704.03;4966068;28;20415;-66
2021/09/04 07:51:18;;;;;;;6.85;4.55;;;;;;;20.69;34.14;95704.69;4967244;28;20107;-66
2021/09/04 07:53:44;;;;;;;7.55;4.45;;;;;;;20.85;34.90;95711.22;4967377;28;20110;-66
2021/09/04 07:56:09;;;;;;;7.65;4.53;;;;;;;21.01;34.46;95708.78;4951181;28;20098;-65
2021/09/04 07:58:35;;;;;;;7.53;4.78;;;;;;;21.11;34.93;95714.38;4964142;28;20343;-66
2021/09/04 08:01:00;;;;;;;7.88;5.82;;;;;;;21.06;34.45;95710.75;4966124;28;20472;-66
2021/09/04 08:03:26;;;;;;;7.50;4.63;;;;;;;21.29;34.42;95719.84;4966427;28;20443;-66
2021/09/04 08:05:51;;;;;;;7.50;5.80;;;;;;;21.40;33.99;95710.81;4972582;28;20111;-66
2021/09/04 08:08:16;;;;;;;6.32;4.75;;;;;;;21.55;33.72;95717.56;4962403;28;20087;-66
2021/09/04 08:10:44;;;;;;;6.30;4.28;;;;;;;21.69;33.54;95716.13;4970049;28;20115;-66
2021/09/04 08:13:10;;;;;;;5.63;4.07;;;;;;;21.92;33.57;95716.25;4966608;28;20404;-66
2021/09/04 08:15:36;;;;;;;7.35;4.40;;;;;;;21.99;33.70;95711.47;4965660;28;20205;-65
2021/09/04 08:18:02;;;;;;;5.75;4.57;;;;;;;21.99;33.07;95722.31;4965992;28;20035;-66
2021/09/04 08:20:27;;;;;;;9.75;4.60;;;;;;;22.03;31.29;95718.03;4972388;28;20069;-66
2021/09/04 08:22:52;;;;;;;8.40;6.32;;;;;;;22.14;31.77;95719.81;4965811;28;20526;-65
2021/09/04 08:25:18;;;;;;;6.32;4.28;;;;;;;22.22;31.80;95720.44;4972842;28;20041;-65
2021/09/04 08:27:43;;;;;;;6.35;4.25;;;;;;;21.55;31.84;95726.50;4968458;28;20031;-66
2021/09/04 08:30:09;;;;;;;7.38;4.38;;;;;;;21.40;32.11;95727.06;4973298;28;20030;-66
2021/09/04 08:32:35;;;;;;;6.43;4.35;;;;;;;21.76;32.21;95724.91;4958343;28;20432;-65
2021/09/04 08:35:00;;;;;;;6.18;4.18;;;;;;;22.23;32.39;95720.19;4962218;28;20031;-65
2021/09/04 08:37:25;;;;;;;5.65;4.40;;;;;;;22.30;29.70;95733.59;4964194;28;20039;-65
2021/09/04 08:39:51;;;;;;;6.40;4.53;;;;;;;22.27;29.61;95732.16;4964840;28;20543;-66
2021/09/04 08:42:16;;;;;;;10.00;7.68;;;;;;;22.58;29.73;95722.81;4965711;28;20153;-66
2021/09/04 08:44:42;;;;;;;14.48;12.90;;;;;;;22.08;31.29;95730.81;4965861;28;20089;-66
2021/09/04 08:47:08;;;;;;;12.15;8.70;;;;;;;22.41;30.39;95737.25;4963198;28;20042;-66
2021/09/04 08:49:35;;;;;;;13.35;10.07;;;;;;;22.50;30.52;95729.50;4967322;28;20078;-66
2021/09/04 08:52:01;;;;;;;12.45;10.55;;;;;;;22.52;30.36;95739.00;4960800;28;20031;-66
2021/09/04 08:54:26;;;;;;;11.65;7.82;;;;;;;22.58;30.80;95739.91;4962304;28;20062;-66
2021/09/04 08:56:52;;;;;;;7.95;5.88;;;;;;;22.69;29.98;95737.31;4967955;28;20022;-65
2021/09/04 08:59:17;;;;;;;7.55;3.85;;;;;;;22.13;29.48;95739.84;4965079;28;20054;-65
2021/09/04 09:01:47;;;;;;;13.27;9.95;;;;;;;21.99;31.21;95739.38;4968831;28;20106;-66
2021/09/04 09:04:17;;;;;;;11.85;10.50;;;;;;;22.03;31.68;95742.44;4965965;28;20316;-66
2021/09/04 09:06:42;;;;;;;6.93;5.53;;;;;;;22.15;32.04;95743.13;4967730;28;20404;-66
2021/09/04 09:09:21;;;;;;;14.35;10.43;;;;;;;22.10;31.57;95737.63;4964964;28;20038;-66
2021/09/04 09:11:47;;;;;;;10.40;8.88;;;;;;;22.18;31.08;95743.69;4965535;28;20566;-66
2021/09/04 09:14:13;;;;;;;13.20;8.93;;;;;;;22.21;30.69;95740.50;4960902;28;20053;-66
2021/09/04 09:16:58;;;;;;;11.20;9.80;;;;;;;22.43;31.93;95745.13;4963016;28;20070;-66
2021/09/04 09:19:27;;;;;;;8.25;5.32;;;;;;;22.66;29.89;95742.19;4969912;28;20049;-66
2021/09/04 09:21:56;;;;;;;8.80;6.28;;;;;;;22.68;29.59;95743.81;4960292;28;20515;-66
2021/09/04 09:24:22;;;;;;;13.95;11.75;;;;;;;22.76;30.10;95736.06;4965176;28;20027;-66
2021/09/04 09:26:48;;;;;;;14.07;11.07;;;;;;;22.99;29.37;95731.41;4955263;28;20058;-66
2021/09/04 09:29:25;;;;;;;12.83;10.07;;;;;;;23.18;28.88;95731.06;4962929;28;20599;-66
2021/09/04 09:32:11;;;;;;;12.23;9.82;;;;;;;23.33;29.05;95735.84;4963043;28;20115;-66
2021/09/04 09:34:43;;;;;;;9.30;7.03;;;;;;;23.53;29.66;95737.09;4962604;28;20115;-66
2021/09/04 09:37:10;;;;;;;8.55;7.18;;;;;;;23.67;28.09;95732.03;4944537;28;20599;-66
2021/09/04 09:39:37;;;;;;;10.65;8.73;;;;;;;23.72;27.98;95728.53;4966826;28;20114;-67
2021/09/04 09:42:04;;;;;;;9.30;7.15;;;;;;;23.78;28.33;95733.78;4950803;28;20173;-66
2021/09/04 09:44:31;;;;;;;5.55;4.65;;;;;;;23.81;27.20;95732.44;4967860;28;20634;-66
2021/09/04 09:46:58;;;;;;;6.85;5.13;;;;;;;23.55;27.43;95724.88;4964147;28;20103;-66
2021/09/04 09:49:31;;;;;;;12.80;9.30;;;;;;;23.73;27.72;95722.84;4962341;28;20560;-66
2021/09/04 09:51:58;;;;;;;9.02;7.20;;;;;;;24.08;27.56;95731.53;4972121;28;20126;-66
2021/09/04 09:54:27;;;;;;;9.05;6.22;;;;;;;24.43;27.21;95730.09;4974176;28;20043;-66
2021/09/04 09:56:54;;;;;;;6.75;4.20;;;;;;;24.94;25.29;95731.38;4947755;28;20026;-65
2021/09/04 09:59:20;;;;;;;10.73;7.25;;;;;;;25.01;26.41;95722.97;4963080;28;20173;-66
2021/09/04 10:01:45;;;;;;;12.83;10.63;;;;;;;24.91;26.46;95723.75;4964014;28;20034;-66
2021/09/04 10:04:11;;;;;;;11.37;7.83;;;;;;;25.03;26.08;95722.69;4964983;28;20037;-65
2021/09/04 10:06:36;;;;;;;7.10;5.27;;;;;;;25.24;25.61;95726.25;4966738;28;20325;-66
2021/09/04 10:09:02;;;;;;;9.30;7.37;;;;;;;25.27;25.72;95724.91;4965171;28;20335;-66
2021/09/04 10:11:27;;;;;;;7.07;5.93;;;;;;;25.33;25.28;95718.38;4968605;28;20065;-66
2021/09/04 10:13:53;;;;;;;8.73;6.20;;;;;;;25.52;25.68;95717.88;4965127;28;20058;-66
2021/09/04 10:16:18;;;;;;;7.20;5.87;;;;;;;25.69;26.08;95723.03;4951792;28;20037;-66
2021/09/04 10:18:43;;;;;;;8.20;5.97;;;;;;;26.00;25.08;95722.97;4964143;28;20150;-66
2021/09/04 10:21:10;;;;;;;7.17;5.27;;;;;;;26.14;25.88;95727.91;4962035;28;20102;-66
2021/09/04 10:23:40;;;;;;;9.40;7.72;;;;;;;25.84;25.03;95731.19;4961797;28;20116;-66
2021/09/04 10:26:21;;;;;;;10.38;7.93;;;;;;;25.58;25.49;95728.50;4966632;28;20114;-66
2021/09/04 10:29:04;;;;;;;7.97;5.95;;;;;;;25.86;25.01;95730.91;4961046;28;20075;-67
2021/09/04 10:32:01;;;;;;;8.13;6.75;;;;;;;25.83;25.31;95729.56;4968430;28;20118;-66
2021/09/04 10:34:37;;;;;;;8.20;6.88;;;;;;;25.78;25.72;95726.84;4965531;28;20109;-66
2021/09/04 10:37:11;;;;;;;9.77;7.88;;;;;;;25.76;26.09;95722.78;4964505;28;20750;-66
2021/09/04 10:39:56;;;;;;;9.40;7.20;;;;;;;25.54;26.48;95719.22;4966894;28;20190;-66
2021/09/04 10:42:31;;;;;;;10.45;7.20;;;;;;;25.45;26.60;95716.19;4965431;28;20133;-66
2021/09/04 10:44:57;;;;;;;11.10;8.85;;;;;;;25.39;26.66;95713.75;4963343;28;20079;-67
2021/09/04 10:47:22;;;;;;;7.23;5.37;;;;;;;25.57;26.66;95715.13;4969797;28;20109;-66
2021/09/04 10:49:56;;;;;;;8.70;6.90;;;;;;;25.18;25.66;95711.81;4967955;28;20554;-66
2021/09/04 10:52:57;;;;;;;8.20;5.25;;;;;;;25.46;25.36;95722.50;4965094;28;20048;-66
2021/09/04 10:55:24;;;;;;;6.68;4.95;;;;;;;25.61;25.32;95716.22;4959883;28;20439;-66
2021/09/04 10:57:54;;;;;;;9.63;5.00;;;;;;;25.73;24.90;95711.31;4966500;28;20066;-66
2021/09/04 11:00:24;;;;;;;9.82;5.68;;;;;;;26.07;24.54;95711.84;4983496;28;20090;-66
2021/09/04 11:02:56;;;;;;;10.07;8.77;;;;;;;26.03;24.76;95705.31;4963982;28;20118;-66
2021/09/04 11:05:25;;;;;;;7.53;5.75;;;;;;;26.33;24.49;95706.28;4966580;28;20138;-79
2021/09/04 11:08:07;;;;;;;10.18;9.02;;;;;;;26.20;25.29;95710.41;4983838;28;20142;-79
2021/09/04 11:10:33;;;;;;;6.82;3.97;;;;;;;26.60;22.89;95710.56;4953566;28;20103;-61
2021/09/04 11:13:13;;;;;;;5.72;3.75;;;;;;;27.34;23.52;95703.59;4970098;28;20359;-61
2021/09/04 11:15:41;;;;;;;5.05;4.45;;;;;;;27.41;22.85;95701.38;4964389;28;20047;-61
2021/09/04 11:18:07;;;;;;;5.93;4.10;;;;;;;27.37;22.35;95708.50;4967226;28;20042;-61
2021/09/04 11:20:32;;;;;;;5.07;4.00;;;;;;;27.74;22.55;95707.09;4963919;28;20090;-61
2021/09/04 11:22:58;;;;;;;7.13;5.13;;;;;;;27.96;23.22;95707.72;4966754;28;20275;-61
2021/09/04 11:25:23;;;;;;;7.60;6.40;;;;;;;28.28;23.05;95709.88;4964924;28;20730;-61
2021/09/04 11:27:49;;;;;;;8.17;6.93;;;;;;;28.35;21.78;95701.31;4964865;28;20104;-61